sensor_id;sensor_type;location;lat;lon;timestamp;P1;durP1;ratioP1;P2;durP2;ratioP2
21564;SDS011;10943;48.738;9.320;2022-12-07T00:01:45;11.20;;;6.88;;
21564;SDS011;10943;48.738;9.320;2022-12-07T00:04:15;10.77;;;7.20;;
21564;SDS011;10943;48.738;9.320;2022-12-07T00:06:46;9.65;;;6.82;;
21564;SDS011;10943;48.738;9.320;2022-12-07T00:09:20;10.02;;;6.90;;
21564;SDS011;10943;48.738;9.320;2022-12-07T00:11:49;10.40;;;6.90;;
21564;SDS011;10943;48.738;9.320;2022-12-07T00:14:19;12.73;;;6.78;;
21564;SDS011;10943;48.738;9.320;2022-12-07T00:16:48;11.88;;;6.72;;
21564;SDS011;10943;48.738;9.320;2022-12-07T00:19:18;9.20;;;6.05;;
21564;SDS011;10943;48.738;9.320;2022-12-07T00:21:46;12.38;;;6.60;;
21564;SDS011;10943;48.738;9.320;2022-12-07T00:24:13;8.73;;;6.50;;
21564;SDS011;10943;48.738;9.320;2022-12-07T00:26:40;9.77;;;6.38;;
21564;SDS011;10943;48.738;9.320;2022-12-07T00:29:16;9.98;;;6.28;;
21564;SDS011;10943;48.738;9.320;2022-12-07T00:31:46;9.32;;;6.47;;
21564;SDS011;10943;48.738;9.320;2022-12-07T00:34:15;8.80;;;6.10;;
21564;SDS011;10943;48.738;9.320;2022-12-07T00:36:47;9.25;;;6.68;;
21564;SDS011;10943;48.738;9.320;2022-12-07T00:39:16;10.05;;;6.90;;
21564;SDS011;10943;48.738;9.320;2022-12-07T00:41:44;9.85;;;6.93;;
21564;SDS011;10943;48.738;9.320;2022-12-07T00:44:11;9.65;;;6.65;;
21564;SDS011;10943;48.738;9.320;2022-12-07T00:46:39;11.27;;;7.10;;
21564;SDS011;10943;48.738;9.320;2022-12-07T00:49:06;9.73;;;7.35;;
21564;SDS011;10943;48.738;9.320;2022-12-07T00:51:34;11.32;;;7.63;;
21564;SDS011;10943;48.738;9.320;2022-12-07T00:54:01;9.85;;;6.85;;
21564;SDS011;10943;48.738;9.320;2022-12-07T00:56:29;11.48;;;7.55;;
21564;SDS011;10943;48.738;9.320;2022-12-07T00:58:57;10.52;;;7.70;;
21564;SDS011;10943;48.738;9.320;2022-12-07T01:01:32;10.90;;;7.95;;
21564;SDS011;10943;48.738;9.320;2022-12-07T01:04:03;9.27;;;6.78;;
21564;SDS011;10943;48.738;9.320;2022-12-07T01:06:31;13.02;;;7.28;;
21564;SDS011;10943;48.738;9.320;2022-12-07T01:09:02;9.73;;;7.05;;
21564;SDS011;10943;48.738;9.320;2022-12-07T01:11:31;9.98;;;7.15;;
21564;SDS011;10943;48.738;9.320;2022-12-07T01:13:59;12.32;;;7.40;;
21564;SDS011;10943;48.738;9.320;2022-12-07T01:16:29;10.98;;;7.32;;
21564;SDS011;10943;48.738;9.320;2022-12-07T01:18:59;13.07;;;7.93;;
21564;SDS011;10943;48.738;9.320;2022-12-07T01:21:32;10.52;;;7.05;;
21564;SDS011;10943;48.738;9.320;2022-12-07T01:24:04;10.13;;;7.30;;
21564;SDS011;10943;48.738;9.320;2022-12-07T01:26:36;10.00;;;7.32;;
21564;SDS011;10943;48.738;9.320;2022-12-07T01:29:04;12.60;;;8.23;;
21564;SDS011;10943;48.738;9.320;2022-12-07T01:31:32;9.52;;;7.22;;
21564;SDS011;10943;48.738;9.320;2022-12-07T01:33:59;10.50;;;7.32;;
21564;SDS011;10943;48.738;9.320;2022-12-07T01:36:31;11.13;;;8.02;;
21564;SDS011;10943;48.738;9.320;2022-12-07T01:39:03;11.93;;;7.90;;
21564;SDS011;10943;48.738;9.320;2022-12-07T01:41:35;12.38;;;8.05;;
21564;SDS011;10943;48.738;9.320;2022-12-07T01:44:15;11.57;;;7.85;;
21564;SDS011;10943;48.738;9.320;2022-12-07T01:47:00;16.27;;;8.60;;
21564;SDS011;10943;48.738;9.320;2022-12-07T01:52:15;13.27;;;8.50;;
21564;SDS011;10943;48.738;9.320;2022-12-07T01:54:53;11.27;;;8.32;;
21564;SDS011;10943;48.738;9.320;2022-12-07T01:57:31;11.85;;;8.45;;
21564;SDS011;10943;48.738;9.320;2022-12-07T02:00:05;13.65;;;8.63;;
21564;SDS011;10943;48.738;9.320;2022-12-07T02:03:19;13.50;;;8.68;;
21564;SDS011;10943;48.738;9.320;2022-12-07T02:05:59;11.82;;;8.30;;
21564;SDS011;10943;48.738;9.320;2022-12-07T02:08:27;13.52;;;9.05;;
21564;SDS011;10943;48.738;9.320;2022-12-07T02:11:01;13.10;;;9.15;;
21564;SDS011;10943;48.738;9.320;2022-12-07T02:13:34;14.95;;;9.55;;
21564;SDS011;10943;48.738;9.320;2022-12-07T02:21:57;14.25;;;9.52;;
21564;SDS011;10943;48.738;9.320;2022-12-07T02:27:47;13.60;;;9.23;;
21564;SDS011;10943;48.738;9.320;2022-12-07T02:30:31;14.15;;;9.05;;
21564;SDS011;10943;48.738;9.320;2022-12-07T02:33:29;13.45;;;9.02;;
21564;SDS011;10943;48.738;9.320;2022-12-07T02:36:10;13.05;;;8.77;;
21564;SDS011;10943;48.738;9.320;2022-12-07T02:41:44;13.85;;;9.70;;
21564;SDS011;10943;48.738;9.320;2022-12-07T02:44:23;14.70;;;9.90;;
21564;SDS011;10943;48.738;9.320;2022-12-07T02:46:57;15.02;;;9.73;;
21564;SDS011;10943;48.738;9.320;2022-12-07T02:49:34;14.73;;;9.55;;
21564;SDS011;10943;48.738;9.320;2022-12-07T02:52:05;14.60;;;10.57;;
21564;SDS011;10943;48.738;9.320;2022-12-07T02:54:32;15.60;;;11.10;;
21564;SDS011;10943;48.738;9.320;2022-12-07T02:57:03;17.98;;;11.80;;
21564;SDS011;10943;48.738;9.320;2022-12-07T03:00:20;16.67;;;11.80;;
21564;SDS011;10943;48.738;9.320;2022-12-07T03:11:05;13.73;;;9.65;;
21564;SDS011;10943;48.738;9.320;2022-12-07T03:13:59;14.63;;;9.20;;
21564;SDS011;10943;48.738;9.320;2022-12-07T03:19:32;16.00;;;9.18;;
21564;SDS011;10943;48.738;9.320;2022-12-07T03:22:02;14.40;;;9.40;;
21564;SDS011;10943;48.738;9.320;2022-12-07T03:24:39;14.38;;;9.75;;
21564;SDS011;10943;48.738;9.320;2022-12-07T03:27:20;14.75;;;9.70;;
21564;SDS011;10943;48.738;9.320;2022-12-07T03:29:57;13.43;;;9.13;;
21564;SDS011;10943;48.738;9.320;2022-12-07T03:32:33;15.30;;;9.60;;
21564;SDS011;10943;48.738;9.320;2022-12-07T03:35:17;13.57;;;9.13;;
21564;SDS011;10943;48.738;9.320;2022-12-07T03:38:00;14.18;;;8.75;;
21564;SDS011;10943;48.738;9.320;2022-12-07T03:40:44;14.38;;;9.10;;
21564;SDS011;10943;48.738;9.320;2022-12-07T03:43:29;16.02;;;9.40;;
21564;SDS011;10943;48.738;9.320;2022-12-07T03:55:02;13.73;;;9.40;;
21564;SDS011;10943;48.738;9.320;2022-12-07T03:57:37;14.07;;;9.40;;
21564;SDS011;10943;48.738;9.320;2022-12-07T04:00:10;13.93;;;8.85;;
21564;SDS011;10943;48.738;9.320;2022-12-07T04:05:38;13.75;;;8.93;;
21564;SDS011;10943;48.738;9.320;2022-12-07T04:08:07;14.32;;;9.25;;
21564;SDS011;10943;48.738;9.320;2022-12-07T04:10:34;13.00;;;9.02;;
21564;SDS011;10943;48.738;9.320;2022-12-07T04:13:02;13.93;;;9.05;;
21564;SDS011;10943;48.738;9.320;2022-12-07T04:15:32;14.75;;;9.27;;
21564;SDS011;10943;48.738;9.320;2022-12-07T04:17:59;14.07;;;9.35;;
21564;SDS011;10943;48.738;9.320;2022-12-07T04:20:29;13.32;;;9.10;;
21564;SDS011;10943;48.738;9.320;2022-12-07T04:22:56;15.25;;;9.88;;
21564;SDS011;10943;48.738;9.320;2022-12-07T04:25:24;15.00;;;9.00;;
21564;SDS011;10943;48.738;9.320;2022-12-07T04:27:51;15.18;;;9.38;;
21564;SDS011;10943;48.738;9.320;2022-12-07T04:30:18;13.15;;;8.75;;
21564;SDS011;10943;48.738;9.320;2022-12-07T04:32:46;15.07;;;9.60;;
21564;SDS011;10943;48.738;9.320;2022-12-07T04:35:13;14.93;;;9.90;;
21564;SDS011;10943;48.738;9.320;2022-12-07T04:37:41;13.65;;;9.00;;
21564;SDS011;10943;48.738;9.320;2022-12-07T04:40:08;14.23;;;8.90;;
21564;SDS011;10943;48.738;9.320;2022-12-07T04:42:37;14.70;;;9.32;;
21564;SDS011;10943;48.738;9.320;2022-12-07T04:45:05;14.27;;;9.52;;
21564;SDS011;10943;48.738;9.320;2022-12-07T04:47:34;15.85;;;10.05;;
21564;SDS011;10943;48.738;9.320;2022-12-07T04:50:01;17.90;;;10.77;;
21564;SDS011;10943;48.738;9.320;2022-12-07T04:52:30;15.57;;;9.90;;
21564;SDS011;10943;48.738;9.320;2022-12-07T04:54:57;17.15;;;10.85;;
21564;SDS011;10943;48.738;9.320;2022-12-07T04:57:24;17.42;;;9.73;;
21564;SDS011;10943;48.738;9.320;2022-12-07T04:59:54;16.95;;;10.23;;
21564;SDS011;10943;48.738;9.320;2022-12-07T05:02:22;15.70;;;10.13;;
21564;SDS011;10943;48.738;9.320;2022-12-07T05:04:49;17.13;;;11.23;;
21564;SDS011;10943;48.738;9.320;2022-12-07T05:07:17;15.93;;;9.80;;
21564;SDS011;10943;48.738;9.320;2022-12-07T05:09:46;17.90;;;10.55;;
21564;SDS011;10943;48.738;9.320;2022-12-07T05:12:13;17.98;;;10.80;;
21564;SDS011;10943;48.738;9.320;2022-12-07T05:14:41;18.42;;;11.43;;
21564;SDS011;10943;48.738;9.320;2022-12-07T05:17:08;16.63;;;11.27;;
21564;SDS011;10943;48.738;9.320;2022-12-07T05:19:35;17.35;;;11.30;;
21564;SDS011;10943;48.738;9.320;2022-12-07T05:22:02;15.85;;;10.10;;
21564;SDS011;10943;48.738;9.320;2022-12-07T05:24:33;16.58;;;10.50;;
21564;SDS011;10943;48.738;9.320;2022-12-07T05:27:00;18.77;;;10.95;;
21564;SDS011;10943;48.738;9.320;2022-12-07T05:29:27;17.08;;;11.35;;
21564;SDS011;10943;48.738;9.320;2022-12-07T05:31:55;20.42;;;11.57;;
21564;SDS011;10943;48.738;9.320;2022-12-07T05:34:22;17.70;;;11.73;;
21564;SDS011;10943;48.738;9.320;2022-12-07T05:36:49;16.85;;;10.80;;
21564;SDS011;10943;48.738;9.320;2022-12-07T05:39:17;18.80;;;11.45;;
21564;SDS011;10943;48.738;9.320;2022-12-07T05:41:44;21.13;;;11.50;;
21564;SDS011;10943;48.738;9.320;2022-12-07T05:44:30;19.98;;;12.18;;
21564;SDS011;10943;48.738;9.320;2022-12-07T05:46:57;18.75;;;11.20;;
21564;SDS011;10943;48.738;9.320;2022-12-07T05:49:24;17.20;;;11.43;;
21564;SDS011;10943;48.738;9.320;2022-12-07T05:51:52;20.95;;;12.23;;
21564;SDS011;10943;48.738;9.320;2022-12-07T05:54:19;19.20;;;11.82;;
21564;SDS011;10943;48.738;9.320;2022-12-07T05:56:46;17.58;;;11.25;;
21564;SDS011;10943;48.738;9.320;2022-12-07T05:59:14;19.20;;;11.77;;
21564;SDS011;10943;48.738;9.320;2022-12-07T06:01:52;18.35;;;11.32;;
21564;SDS011;10943;48.738;9.320;2022-12-07T06:04:27;19.13;;;11.30;;
21564;SDS011;10943;48.738;9.320;2022-12-07T06:06:59;19.98;;;11.68;;
21564;SDS011;10943;48.738;9.320;2022-12-07T06:09:27;18.30;;;11.80;;
21564;SDS011;10943;48.738;9.320;2022-12-07T06:11:56;18.92;;;11.82;;
21564;SDS011;10943;48.738;9.320;2022-12-07T06:14:43;19.33;;;11.85;;
21564;SDS011;10943;48.738;9.320;2022-12-07T06:17:14;20.92;;;11.27;;
21564;SDS011;10943;48.738;9.320;2022-12-07T06:19:42;18.77;;;10.98;;
21564;SDS011;10943;48.738;9.320;2022-12-07T06:22:10;17.42;;;11.60;;
21564;SDS011;10943;48.738;9.320;2022-12-07T06:24:38;18.80;;;11.77;;
21564;SDS011;10943;48.738;9.320;2022-12-07T06:27:06;16.83;;;10.98;;
21564;SDS011;10943;48.738;9.320;2022-12-07T06:29:33;20.33;;;11.57;;
21564;SDS011;10943;48.738;9.320;2022-12-07T06:32:01;23.60;;;13.82;;
21564;SDS011;10943;48.738;9.320;2022-12-07T06:34:30;25.38;;;15.63;;
21564;SDS011;10943;48.738;9.320;2022-12-07T06:37:00;31.20;;;18.00;;
21564;SDS011;10943;48.738;9.320;2022-12-07T06:39:28;24.15;;;14.50;;
21564;SDS011;10943;48.738;9.320;2022-12-07T06:41:56;20.65;;;12.90;;
21564;SDS011;10943;48.738;9.320;2022-12-07T06:44:23;24.42;;;15.57;;
21564;SDS011;10943;48.738;9.320;2022-12-07T06:46:51;19.10;;;12.50;;
21564;SDS011;10943;48.738;9.320;2022-12-07T06:49:38;19.50;;;12.00;;
21564;SDS011;10943;48.738;9.320;2022-12-07T06:52:05;18.27;;;11.30;;
21564;SDS011;10943;48.738;9.320;2022-12-07T06:54:32;20.10;;;11.95;;
21564;SDS011;10943;48.738;9.320;2022-12-07T06:56:59;20.20;;;13.20;;
21564;SDS011;10943;48.738;9.320;2022-12-07T06:59:28;20.95;;;12.90;;
21564;SDS011;10943;48.738;9.320;2022-12-07T07:01:55;18.60;;;11.80;;
21564;SDS011;10943;48.738;9.320;2022-12-07T07:04:24;18.65;;;11.20;;
21564;SDS011;10943;48.738;9.320;2022-12-07T07:06:51;19.20;;;11.75;;
21564;SDS011;10943;48.738;9.320;2022-12-07T07:09:25;20.10;;;12.05;;
21564;SDS011;10943;48.738;9.320;2022-12-07T07:11:53;19.17;;;11.27;;
21564;SDS011;10943;48.738;9.320;2022-12-07T07:14:25;19.63;;;12.30;;
21564;SDS011;10943;48.738;9.320;2022-12-07T07:16:53;18.50;;;11.55;;
21564;SDS011;10943;48.738;9.320;2022-12-07T07:19:20;18.35;;;11.50;;
21564;SDS011;10943;48.738;9.320;2022-12-07T07:21:48;20.20;;;11.65;;
21564;SDS011;10943;48.738;9.320;2022-12-07T07:24:15;19.67;;;11.82;;
21564;SDS011;10943;48.738;9.320;2022-12-07T07:26:42;17.92;;;12.13;;
21564;SDS011;10943;48.738;9.320;2022-12-07T07:29:09;21.42;;;11.95;;
21564;SDS011;10943;48.738;9.320;2022-12-07T07:31:37;19.60;;;12.48;;
21564;SDS011;10943;48.738;9.320;2022-12-07T07:34:04;18.70;;;11.77;;
21564;SDS011;10943;48.738;9.320;2022-12-07T07:36:32;18.77;;;11.63;;
21564;SDS011;10943;48.738;9.320;2022-12-07T07:39:02;20.65;;;14.25;;
21564;SDS011;10943;48.738;9.320;2022-12-07T07:41:30;22.45;;;14.32;;
21564;SDS011;10943;48.738;9.320;2022-12-07T07:43:58;21.65;;;13.68;;
21564;SDS011;10943;48.738;9.320;2022-12-07T07:46:27;19.60;;;12.90;;
21564;SDS011;10943;48.738;9.320;2022-12-07T07:48:54;20.73;;;11.77;;
21564;SDS011;10943;48.738;9.320;2022-12-07T07:51:21;21.42;;;12.70;;
21564;SDS011;10943;48.738;9.320;2022-12-07T07:53:49;18.80;;;12.38;;
21564;SDS011;10943;48.738;9.320;2022-12-07T07:56:18;19.98;;;12.35;;
21564;SDS011;10943;48.738;9.320;2022-12-07T07:58:46;18.45;;;11.90;;
21564;SDS011;10943;48.738;9.320;2022-12-07T08:01:16;18.60;;;11.68;;
21564;SDS011;10943;48.738;9.320;2022-12-07T08:03:46;16.63;;;11.52;;
21564;SDS011;10943;48.738;9.320;2022-12-07T08:06:14;16.63;;;10.93;;
21564;SDS011;10943;48.738;9.320;2022-12-07T08:08:41;18.08;;;11.63;;
21564;SDS011;10943;48.738;9.320;2022-12-07T08:11:09;14.70;;;10.00;;
21564;SDS011;10943;48.738;9.320;2022-12-07T08:13:37;15.68;;;9.73;;
21564;SDS011;10943;48.738;9.320;2022-12-07T08:16:08;18.73;;;10.10;;
21564;SDS011;10943;48.738;9.320;2022-12-07T08:18:38;13.68;;;9.00;;
21564;SDS011;10943;48.738;9.320;2022-12-07T08:21:07;14.07;;;9.90;;
21564;SDS011;10943;48.738;9.320;2022-12-07T08:23:40;16.52;;;9.80;;
21564;SDS011;10943;48.738;9.320;2022-12-07T08:26:12;14.82;;;9.02;;
21564;SDS011;10943;48.738;9.320;2022-12-07T08:28:42;13.25;;;8.60;;
21564;SDS011;10943;48.738;9.320;2022-12-07T08:31:13;17.48;;;9.02;;
21564;SDS011;10943;48.738;9.320;2022-12-07T08:33:45;14.13;;;9.25;;
21564;SDS011;10943;48.738;9.320;2022-12-07T08:36:15;13.50;;;8.98;;
21564;SDS011;10943;48.738;9.320;2022-12-07T08:38:49;12.27;;;7.90;;
21564;SDS011;10943;48.738;9.320;2022-12-07T08:41:37;14.82;;;8.93;;
21564;SDS011;10943;48.738;9.320;2022-12-07T08:44:06;13.48;;;8.10;;
21564;SDS011;10943;48.738;9.320;2022-12-07T08:46:38;11.85;;;8.00;;
21564;SDS011;10943;48.738;9.320;2022-12-07T08:49:33;11.57;;;8.18;;
21564;SDS011;10943;48.738;9.320;2022-12-07T08:52:08;11.15;;;7.40;;
21564;SDS011;10943;48.738;9.320;2022-12-07T08:54:36;11.68;;;7.55;;
21564;SDS011;10943;48.738;9.320;2022-12-07T08:57:07;12.20;;;7.53;;
21564;SDS011;10943;48.738;9.320;2022-12-07T08:59:36;14.27;;;7.95;;
21564;SDS011;10943;48.738;9.320;2022-12-07T09:02:04;12.25;;;7.65;;
21564;SDS011;10943;48.738;9.320;2022-12-07T09:04:33;10.85;;;7.28;;
21564;SDS011;10943;48.738;9.320;2022-12-07T09:07:00;10.25;;;7.13;;
21564;SDS011;10943;48.738;9.320;2022-12-07T09:09:28;11.13;;;6.70;;
21564;SDS011;10943;48.738;9.320;2022-12-07T09:11:55;13.07;;;7.22;;
21564;SDS011;10943;48.738;9.320;2022-12-07T09:14:27;13.00;;;6.63;;
21564;SDS011;10943;48.738;9.320;2022-12-07T09:16:54;9.75;;;6.22;;
21564;SDS011;10943;48.738;9.320;2022-12-07T09:19:35;8.32;;;6.00;;
21564;SDS011;10943;48.738;9.320;2022-12-07T09:22:04;9.93;;;5.95;;
21564;SDS011;10943;48.738;9.320;2022-12-07T09:24:32;9.20;;;6.22;;
21564;SDS011;10943;48.738;9.320;2022-12-07T09:26:59;11.57;;;6.53;;
21564;SDS011;10943;48.738;9.320;2022-12-07T09:29:26;8.90;;;6.07;;
21564;SDS011;10943;48.738;9.320;2022-12-07T09:31:53;8.90;;;5.75;;
21564;SDS011;10943;48.738;9.320;2022-12-07T09:34:21;8.52;;;5.70;;
21564;SDS011;10943;48.738;9.320;2022-12-07T09:36:48;10.02;;;6.32;;
21564;SDS011;10943;48.738;9.320;2022-12-07T09:39:16;9.68;;;6.03;;
21564;SDS011;10943;48.738;9.320;2022-12-07T09:41:43;10.60;;;7.00;;
21564;SDS011;10943;48.738;9.320;2022-12-07T09:44:14;11.35;;;7.75;;
21564;SDS011;10943;48.738;9.320;2022-12-07T09:46:53;10.75;;;7.10;;
21564;SDS011;10943;48.738;9.320;2022-12-07T09:49:21;10.20;;;6.40;;
21564;SDS011;10943;48.738;9.320;2022-12-07T09:54:36;9.80;;;6.43;;
21564;SDS011;10943;48.738;9.320;2022-12-07T09:57:15;8.52;;;6.25;;
21564;SDS011;10943;48.738;9.320;2022-12-07T09:59:54;12.20;;;6.32;;
21564;SDS011;10943;48.738;9.320;2022-12-07T10:05:21;7.90;;;5.55;;
21564;SDS011;10943;48.738;9.320;2022-12-07T10:07:59;9.18;;;6.00;;
21564;SDS011;10943;48.738;9.320;2022-12-07T10:10:29;9.73;;;6.15;;
21564;SDS011;10943;48.738;9.320;2022-12-07T10:13:05;8.10;;;5.32;;
21564;SDS011;10943;48.738;9.320;2022-12-07T10:18:39;8.43;;;5.57;;
21564;SDS011;10943;48.738;9.320;2022-12-07T10:23:41;8.40;;;5.50;;
21564;SDS011;10943;48.738;9.320;2022-12-07T10:26:38;8.07;;;5.43;;
21564;SDS011;10943;48.738;9.320;2022-12-07T10:29:16;9.20;;;6.15;;
21564;SDS011;10943;48.738;9.320;2022-12-07T10:31:53;10.25;;;5.70;;
21564;SDS011;10943;48.738;9.320;2022-12-07T10:34:41;11.55;;;5.72;;
21564;SDS011;10943;48.738;9.320;2022-12-07T10:37:18;10.45;;;5.75;;
21564;SDS011;10943;48.738;9.320;2022-12-07T10:39:49;8.27;;;5.18;;
21564;SDS011;10943;48.738;9.320;2022-12-07T10:45:36;8.25;;;5.30;;
21564;SDS011;10943;48.738;9.320;2022-12-07T10:47:39;9.38;;;5.65;;
21564;SDS011;10943;48.738;9.320;2022-12-07T11:00:23;8.18;;;4.78;;
21564;SDS011;10943;48.738;9.320;2022-12-07T11:15:21;9.43;;;5.75;;
21564;SDS011;10943;48.738;9.320;2022-12-07T11:18:36;9.27;;;5.70;;
21564;SDS011;10943;48.738;9.320;2022-12-07T11:33:51;10.10;;;5.32;;
21564;SDS011;10943;48.738;9.320;2022-12-07T11:36:37;9.55;;;4.78;;
21564;SDS011;10943;48.738;9.320;2022-12-07T11:41:57;7.95;;;4.93;;
21564;SDS011;10943;48.738;9.320;2022-12-07T11:47:36;9.05;;;4.40;;
21564;SDS011;10943;48.738;9.320;2022-12-07T11:53:33;8.10;;;5.05;;
21564;SDS011;10943;48.738;9.320;2022-12-07T12:04:42;8.77;;;5.25;;
21564;SDS011;10943;48.738;9.320;2022-12-07T12:07:48;8.90;;;4.95;;
21564;SDS011;10943;48.738;9.320;2022-12-07T12:15:02;9.18;;;5.72;;
21564;SDS011;10943;48.738;9.320;2022-12-07T12:18:12;9.82;;;5.10;;
21564;SDS011;10943;48.738;9.320;2022-12-07T12:21:46;10.52;;;5.25;;
21564;SDS011;10943;48.738;9.320;2022-12-07T12:24:25;10.48;;;6.43;;
21564;SDS011;10943;48.738;9.320;2022-12-07T12:27:05;8.05;;;4.72;;
21564;SDS011;10943;48.738;9.320;2022-12-07T12:29:57;9.60;;;5.15;;
21564;SDS011;10943;48.738;9.320;2022-12-07T12:40:57;9.35;;;4.03;;
21564;SDS011;10943;48.738;9.320;2022-12-07T12:43:43;5.50;;;3.33;;
21564;SDS011;10943;48.738;9.320;2022-12-07T12:49:44;8.43;;;4.43;;
21564;SDS011;10943;48.738;9.320;2022-12-07T12:51:52;7.28;;;4.20;;
21564;SDS011;10943;48.738;9.320;2022-12-07T12:57:35;8.70;;;5.63;;
21564;SDS011;10943;48.738;9.320;2022-12-07T13:00:23;10.23;;;5.72;;
21564;SDS011;10943;48.738;9.320;2022-12-07T13:02:55;9.27;;;6.15;;
21564;SDS011;10943;48.738;9.320;2022-12-07T13:05:29;9.43;;;5.57;;
21564;SDS011;10943;48.738;9.320;2022-12-07T13:11:17;10.02;;;5.38;;
21564;SDS011;10943;48.738;9.320;2022-12-07T13:17:12;8.70;;;5.80;;
21564;SDS011;10943;48.738;9.320;2022-12-07T13:22:43;9.15;;;5.40;;
21564;SDS011;10943;48.738;9.320;2022-12-07T13:25:33;10.68;;;5.30;;
21564;SDS011;10943;48.738;9.320;2022-12-07T13:28:18;9.25;;;6.30;;
21564;SDS011;10943;48.738;9.320;2022-12-07T13:33:48;7.75;;;4.82;;
21564;SDS011;10943;48.738;9.320;2022-12-07T13:36:26;8.02;;;4.95;;
21564;SDS011;10943;48.738;9.320;2022-12-07T13:41:56;9.23;;;5.13;;
21564;SDS011;10943;48.738;9.320;2022-12-07T13:44:33;9.77;;;5.07;;
21564;SDS011;10943;48.738;9.320;2022-12-07T13:50:20;8.30;;;5.20;;
21564;SDS011;10943;48.738;9.320;2022-12-07T13:52:58;8.35;;;5.07;;
21564;SDS011;10943;48.738;9.320;2022-12-07T13:55:28;7.90;;;5.00;;
21564;SDS011;10943;48.738;9.320;2022-12-07T13:57:56;6.75;;;4.75;;
21564;SDS011;10943;48.738;9.320;2022-12-07T14:00:24;8.13;;;5.00;;
21564;SDS011;10943;48.738;9.320;2022-12-07T14:02:56;9.80;;;4.93;;
21564;SDS011;10943;48.738;9.320;2022-12-07T14:05:30;9.93;;;5.00;;
21564;SDS011;10943;48.738;9.320;2022-12-07T14:10:59;7.78;;;4.88;;
21564;SDS011;10943;48.738;9.320;2022-12-07T14:13:28;8.48;;;5.55;;
21564;SDS011;10943;48.738;9.320;2022-12-07T14:18:55;8.30;;;4.80;;
21564;SDS011;10943;48.738;9.320;2022-12-07T14:21:27;8.27;;;4.72;;
21564;SDS011;10943;48.738;9.320;2022-12-07T14:24:14;9.88;;;4.88;;
21564;SDS011;10943;48.738;9.320;2022-12-07T14:26:50;9.50;;;5.45;;
21564;SDS011;10943;48.738;9.320;2022-12-07T14:31:59;7.95;;;4.53;;
21564;SDS011;10943;48.738;9.320;2022-12-07T14:37:41;8.70;;;5.47;;
21564;SDS011;10943;48.738;9.320;2022-12-07T14:40:14;8.43;;;5.32;;
21564;SDS011;10943;48.738;9.320;2022-12-07T14:42:54;9.15;;;6.05;;
21564;SDS011;10943;48.738;9.320;2022-12-07T14:45:33;11.55;;;5.60;;
21564;SDS011;10943;48.738;9.320;2022-12-07T14:48:00;9.20;;;5.53;;
21564;SDS011;10943;48.738;9.320;2022-12-07T14:50:49;10.07;;;5.50;;
21564;SDS011;10943;48.738;9.320;2022-12-07T14:53:42;7.78;;;5.00;;
21564;SDS011;10943;48.738;9.320;2022-12-07T14:56:23;9.18;;;5.47;;
21564;SDS011;10943;48.738;9.320;2022-12-07T14:58:51;10.07;;;5.63;;
21564;SDS011;10943;48.738;9.320;2022-12-07T15:01:19;9.60;;;5.45;;
21564;SDS011;10943;48.738;9.320;2022-12-07T15:03:46;11.50;;;6.15;;
21564;SDS011;10943;48.738;9.320;2022-12-07T15:06:15;8.75;;;6.10;;
21564;SDS011;10943;48.738;9.320;2022-12-07T15:08:45;11.05;;;6.55;;
21564;SDS011;10943;48.738;9.320;2022-12-07T15:11:16;11.88;;;5.90;;
21564;SDS011;10943;48.738;9.320;2022-12-07T15:13:45;12.10;;;7.18;;
21564;SDS011;10943;48.738;9.320;2022-12-07T15:16:31;9.75;;;6.43;;
21564;SDS011;10943;48.738;9.320;2022-12-07T15:19:19;11.90;;;6.55;;
21564;SDS011;10943;48.738;9.320;2022-12-07T15:21:54;10.32;;;6.20;;
21564;SDS011;10943;48.738;9.320;2022-12-07T15:24:23;10.98;;;6.05;;
21564;SDS011;10943;48.738;9.320;2022-12-07T15:26:51;8.82;;;5.68;;
21564;SDS011;10943;48.738;9.320;2022-12-07T15:29:18;10.20;;;6.15;;
21564;SDS011;10943;48.738;9.320;2022-12-07T15:31:49;8.82;;;5.95;;
21564;SDS011;10943;48.738;9.320;2022-12-07T15:34:24;9.88;;;6.30;;
21564;SDS011;10943;48.738;9.320;2022-12-07T15:37:03;15.82;;;7.18;;
21564;SDS011;10943;48.738;9.320;2022-12-07T15:39:31;13.20;;;6.72;;
21564;SDS011;10943;48.738;9.320;2022-12-07T15:41:58;9.75;;;6.45;;
21564;SDS011;10943;48.738;9.320;2022-12-07T15:44:26;11.57;;;7.13;;
21564;SDS011;10943;48.738;9.320;2022-12-07T15:47:12;10.02;;;6.35;;
21564;SDS011;10943;48.738;9.320;2022-12-07T15:49:39;10.68;;;6.32;;
21564;SDS011;10943;48.738;9.320;2022-12-07T15:52:07;11.85;;;6.70;;
21564;SDS011;10943;48.738;9.320;2022-12-07T15:55:01;12.07;;;6.97;;
21564;SDS011;10943;48.738;9.320;2022-12-07T15:58:15;10.20;;;6.65;;
21564;SDS011;10943;48.738;9.320;2022-12-07T16:00:43;10.18;;;6.30;;
21564;SDS011;10943;48.738;9.320;2022-12-07T16:03:11;11.65;;;6.80;;
21564;SDS011;10943;48.738;9.320;2022-12-07T16:05:38;9.98;;;6.68;;
21564;SDS011;10943;48.738;9.320;2022-12-07T16:08:06;9.95;;;6.15;;
21564;SDS011;10943;48.738;9.320;2022-12-07T16:10:34;10.98;;;6.47;;
21564;SDS011;10943;48.738;9.320;2022-12-07T16:13:01;8.98;;;5.43;;
21564;SDS011;10943;48.738;9.320;2022-12-07T16:15:28;10.35;;;6.22;;
21564;SDS011;10943;48.738;9.320;2022-12-07T16:17:56;10.55;;;6.13;;
21564;SDS011;10943;48.738;9.320;2022-12-07T16:20:23;11.73;;;7.32;;
21564;SDS011;10943;48.738;9.320;2022-12-07T16:22:52;11.27;;;7.03;;
21564;SDS011;10943;48.738;9.320;2022-12-07T16:25:19;11.05;;;6.55;;
21564;SDS011;10943;48.738;9.320;2022-12-07T16:27:50;10.32;;;6.05;;
21564;SDS011;10943;48.738;9.320;2022-12-07T16:30:19;12.05;;;6.85;;
21564;SDS011;10943;48.738;9.320;2022-12-07T16:32:49;8.82;;;5.75;;
21564;SDS011;10943;48.738;9.320;2022-12-07T16:35:16;10.27;;;6.60;;
21564;SDS011;10943;48.738;9.320;2022-12-07T16:37:44;11.13;;;6.85;;
21564;SDS011;10943;48.738;9.320;2022-12-07T16:40:11;10.73;;;6.85;;
21564;SDS011;10943;48.738;9.320;2022-12-07T16:42:39;9.68;;;7.00;;
21564;SDS011;10943;48.738;9.320;2022-12-07T16:45:06;9.27;;;6.28;;
21564;SDS011;10943;48.738;9.320;2022-12-07T16:47:38;11.30;;;7.20;;
21564;SDS011;10943;48.738;9.320;2022-12-07T16:50:07;9.20;;;6.10;;
21564;SDS011;10943;48.738;9.320;2022-12-07T16:52:35;11.43;;;6.50;;
21564;SDS011;10943;48.738;9.320;2022-12-07T16:55:02;10.82;;;6.97;;
21564;SDS011;10943;48.738;9.320;2022-12-07T16:57:33;10.13;;;6.15;;
21564;SDS011;10943;48.738;9.320;2022-12-07T17:00:01;10.27;;;6.17;;
21564;SDS011;10943;48.738;9.320;2022-12-07T17:02:31;10.27;;;6.15;;
21564;SDS011;10943;48.738;9.320;2022-12-07T17:04:58;9.43;;;6.15;;
21564;SDS011;10943;48.738;9.320;2022-12-07T17:07:26;10.65;;;6.13;;
21564;SDS011;10943;48.738;9.320;2022-12-07T17:09:53;9.32;;;5.40;;
21564;SDS011;10943;48.738;9.320;2022-12-07T17:12:21;10.25;;;6.35;;
21564;SDS011;10943;48.738;9.320;2022-12-07T17:14:48;13.25;;;5.75;;
21564;SDS011;10943;48.738;9.320;2022-12-07T17:17:34;11.82;;;7.05;;
21564;SDS011;10943;48.738;9.320;2022-12-07T17:20:05;11.68;;;7.60;;
21564;SDS011;10943;48.738;9.320;2022-12-07T17:22:33;11.98;;;7.60;;
21564;SDS011;10943;48.738;9.320;2022-12-07T17:25:00;13.98;;;7.82;;
21564;SDS011;10943;48.738;9.320;2022-12-07T17:29:28;10.90;;;7.38;;
21564;SDS011;10943;48.738;9.320;2022-12-07T17:31:58;13.57;;;7.05;;
21564;SDS011;10943;48.738;9.320;2022-12-07T17:34:26;12.18;;;7.20;;
21564;SDS011;10943;48.738;9.320;2022-12-07T17:36:53;10.18;;;6.88;;
21564;SDS011;10943;48.738;9.320;2022-12-07T17:39:21;11.68;;;6.82;;
21564;SDS011;10943;48.738;9.320;2022-12-07T17:41:48;12.32;;;7.93;;
21564;SDS011;10943;48.738;9.320;2022-12-07T17:44:34;12.80;;;8.30;;